createdAt,value
2022-10-11T00:02:20.290Z,2.70
2022-10-11T00:04:47.666Z,2.85
2022-10-11T00:07:15.030Z,2.85
2022-10-11T00:09:42.745Z,2.60
2022-10-11T00:12:10.018Z,2.53
2022-10-11T00:14:37.802Z,2.33
2022-10-11T00:17:07.848Z,2.30
2022-10-11T00:22:02.278Z,2.10
2022-10-11T00:24:29.613Z,2.10
2022-10-11T00:26:56.948Z,1.92
2022-10-11T00:29:24.254Z,2.30
2022-10-11T00:31:51.563Z,2.40
2022-10-11T00:34:18.851Z,2.40
2022-10-11T00:36:46.399Z,2.15
2022-10-11T00:39:14.480Z,2.40
2022-10-11T00:41:42.016Z,2.00
2022-10-11T00:44:22.661Z,2.50
2022-10-11T00:46:56.063Z,2.13
2022-10-11T00:49:36.409Z,2.15
2022-10-11T00:52:12.526Z,2.33
2022-10-11T00:54:41.004Z,2.20
2022-10-11T00:57:12.848Z,2.28
2022-10-11T00:59:44.746Z,2.80
2022-10-11T01:02:12.356Z,2.10
2022-10-11T01:04:40.095Z,1.95
2022-10-11T01:07:07.760Z,2.10
2022-10-11T01:09:35.043Z,2.25
2022-10-11T01:12:04.574Z,2.13
2022-10-11T01:14:44.093Z,2.30
2022-10-11T01:17:17.142Z,2.67
2022-10-11T01:19:50.527Z,3.00
2022-10-11T01:22:18.873Z,3.28
2022-10-11T01:25:09.453Z,2.55
2022-10-11T01:27:45.829Z,2.67
2022-10-11T01:30:20.592Z,2.80
2022-10-11T01:33:06.325Z,2.50
2022-10-11T01:35:42.547Z,2.33
2022-10-11T01:38:17.710Z,3.10
2022-10-11T01:40:48.015Z,3.25
2022-10-11T01:43:16.365Z,4.15
2022-10-11T01:45:44.404Z,4.90
2022-10-11T01:48:13.088Z,4.30
2022-10-11T01:50:53.618Z,3.70
2022-10-11T01:53:26.170Z,3.15
2022-10-11T01:56:06.881Z,2.42
2022-10-11T01:58:53.240Z,2.70
2022-10-11T02:01:39.395Z,2.83
2022-10-11T02:04:25.816Z,2.47
2022-10-11T02:07:08.467Z,2.28
2022-10-11T02:09:57.806Z,2.60
2022-10-11T02:12:34.695Z,3.03
2022-10-11T02:15:03.831Z,2.67
2022-10-11T02:17:36.765Z,3.20
2022-10-11T02:20:06.968Z,2.50
2022-10-11T02:22:39.020Z,2.70
2022-10-11T02:25:08.417Z,2.95
2022-10-11T02:27:36.919Z,2.70
2022-10-11T02:30:05.522Z,2.60
2022-10-11T02:32:32.831Z,2.92
2022-10-11T02:35:01.146Z,3.25
2022-10-11T02:37:32.464Z,3.08
2022-10-11T02:40:04.956Z,2.35
2022-10-11T02:42:37.394Z,2.33
2022-10-11T02:45:09.039Z,2.13
2022-10-11T02:47:36.363Z,2.15
2022-10-11T02:50:03.832Z,2.30
2022-10-11T02:52:31.069Z,1.88
2022-10-11T02:54:58.383Z,1.90
2022-10-11T02:57:25.985Z,3.25
2022-10-11T02:59:53.272Z,1.98
2022-10-11T03:02:20.576Z,1.83
2022-10-11T03:04:47.826Z,1.85
2022-10-11T03:07:15.303Z,1.95
2022-10-11T03:09:42.651Z,2.10
2022-10-11T03:12:10.031Z,3.10
2022-10-11T03:14:37.524Z,3.55
2022-10-11T03:17:30.896Z,2.95
2022-10-11T03:19:52.614Z,2.80
2022-10-11T03:22:19.865Z,5.65
2022-10-11T03:24:47.167Z,2.78
2022-10-11T03:27:14.436Z,2.42
2022-10-11T03:29:41.712Z,2.08
2022-10-11T03:32:08.991Z,2.20
2022-10-11T03:34:36.260Z,2.30
2022-10-11T03:37:03.497Z,2.00
2022-10-11T03:39:30.793Z,2.47
2022-10-11T03:41:58.043Z,2.00
2022-10-11T03:44:25.327Z,2.03
2022-10-11T03:46:52.619Z,2.03
2022-10-11T03:49:19.993Z,2.08
2022-10-11T03:51:47.283Z,2.50
2022-10-11T03:54:14.742Z,2.08
2022-10-11T03:56:42.014Z,2.00
2022-10-11T03:59:09.349Z,2.15
2022-10-11T04:01:38.572Z,2.83
2022-10-11T04:04:06.293Z,2.75
2022-10-11T04:06:33.587Z,2.28
2022-10-11T04:09:01.066Z,2.35
2022-10-11T04:11:28.420Z,2.42
2022-10-11T04:13:55.703Z,2.72
2022-10-11T04:16:22.948Z,2.63
2022-10-11T04:18:50.211Z,1.98
2022-10-11T04:21:18.011Z,2.50
2022-10-11T04:23:45.338Z,2.53
2022-10-11T04:26:12.627Z,2.50
2022-10-11T04:28:41.090Z,2.40
2022-10-11T04:31:08.487Z,2.33
2022-10-11T04:33:35.858Z,2.97
2022-10-11T04:36:03.747Z,2.45
2022-10-11T04:38:32.809Z,1.83
2022-10-11T04:41:08.796Z,2.80
2022-10-11T04:43:36.248Z,2.70
2022-10-11T04:46:03.542Z,2.85
2022-10-11T04:48:31.298Z,2.20
2022-10-11T04:50:58.604Z,2.17
2022-10-11T04:53:26.089Z,2.35
2022-10-11T04:55:57.979Z,2.38
2022-10-11T04:58:25.248Z,2.30
2022-10-11T05:00:52.498Z,2.25
2022-10-11T05:03:19.796Z,2.58
2022-10-11T05:05:47.055Z,2.50
2022-10-11T05:08:14.295Z,3.63
2022-10-11T05:10:41.551Z,2.45
2022-10-11T05:13:08.803Z,2.90
2022-10-11T05:15:36.065Z,2.55
2022-10-11T05:18:03.295Z,2.40
2022-10-11T05:20:30.621Z,2.00
2022-10-11T05:22:57.937Z,2.40
2022-10-11T05:25:25.218Z,2.28
2022-10-11T05:27:52.475Z,1.75
2022-10-11T05:30:19.746Z,2.42
2022-10-11T05:32:47.044Z,2.15
2022-10-11T05:35:14.696Z,2.30
2022-10-11T05:37:41.981Z,3.10
2022-10-11T05:40:09.652Z,2.17
2022-10-11T05:42:36.903Z,1.73
2022-10-11T05:45:05.202Z,2.63
2022-10-11T05:47:32.515Z,2.22
2022-10-11T05:49:59.999Z,2.30
2022-10-11T05:52:27.423Z,2.42
2022-10-11T05:54:54.675Z,2.55
2022-10-11T05:57:22.007Z,2.13
2022-10-11T05:59:49.249Z,2.45
2022-10-11T06:02:16.554Z,2.47
2022-10-11T06:04:43.804Z,2.17
2022-10-11T06:07:11.132Z,2.28
2022-10-11T06:09:39.650Z,2.28
2022-10-11T06:12:07.096Z,2.05
2022-10-11T06:14:34.644Z,1.85
2022-10-11T06:17:01.908Z,2.00
2022-10-11T06:19:29.243Z,2.00
2022-10-11T06:21:56.567Z,2.22
2022-10-11T06:24:23.879Z,2.70
2022-10-11T06:26:51.162Z,3.55
2022-10-11T06:29:18.418Z,2.83
2022-10-11T06:31:45.826Z,2.10
2022-10-11T06:34:13.036Z,2.13
2022-10-11T06:36:40.286Z,1.90
2022-10-11T06:39:07.541Z,3.53
2022-10-11T06:41:34.874Z,2.10
2022-10-11T06:44:02.169Z,2.10
2022-10-11T06:46:29.540Z,2.10
2022-10-11T06:48:56.814Z,1.83
2022-10-11T06:51:25.627Z,2.42
2022-10-11T06:53:55.553Z,2.28
2022-10-11T06:58:51.273Z,1.95
2022-10-11T07:01:20.151Z,2.72
2022-10-11T07:03:48.239Z,1.60
2022-10-11T07:06:16.930Z,2.13
2022-10-11T07:08:44.264Z,1.50
2022-10-11T07:11:12.702Z,2.22
2022-10-11T07:13:40.538Z,2.10
2022-10-11T07:16:09.524Z,2.08
2022-10-11T07:18:37.209Z,1.98
2022-10-11T07:21:08.670Z,1.90
2022-10-11T07:24:09.208Z,1.70
2022-10-11T07:26:38.603Z,2.05
2022-10-11T07:31:33.823Z,2.60
2022-10-11T07:34:01.121Z,2.60
2022-10-11T07:36:28.538Z,2.15
2022-10-11T07:38:55.865Z,1.85
2022-10-11T07:41:23.146Z,2.33
2022-10-11T07:43:51.108Z,2.05
2022-10-11T07:46:18.951Z,1.80
2022-10-11T07:48:46.360Z,2.05
2022-10-11T07:51:23.412Z,2.33
2022-10-11T07:53:55.491Z,2.13
2022-10-11T07:56:27.131Z,1.95
2022-10-11T07:58:55.757Z,1.90
2022-10-11T08:01:23.158Z,3.08
2022-10-11T08:03:51.037Z,2.83
2022-10-11T08:06:19.530Z,2.00
2022-10-11T08:08:46.832Z,3.60
2022-10-11T08:11:20.876Z,1.88
2022-10-11T08:13:48.166Z,2.63
2022-10-11T08:16:15.418Z,3.03
2022-10-11T08:18:42.922Z,2.47
2022-10-11T08:21:11.071Z,2.63
2022-10-11T08:23:38.523Z,2.65
2022-10-11T08:26:06.142Z,3.10
2022-10-11T08:28:33.908Z,2.60
2022-10-11T08:31:01.282Z,3.97
2022-10-11T08:33:28.916Z,4.00
2022-10-11T08:35:57.363Z,2.83
2022-10-11T08:38:25.084Z,2.40
2022-10-11T08:40:56.530Z,2.45
2022-10-11T08:43:30.358Z,3.70
2022-10-11T08:45:59.624Z,2.30
2022-10-11T08:48:32.682Z,2.17
2022-10-11T08:51:00.031Z,2.20
2022-10-11T08:53:30.766Z,2.35
2022-10-11T08:55:58.124Z,2.25
2022-10-11T08:58:29.708Z,2.38
2022-10-11T09:00:57.461Z,2.92
2022-10-11T09:03:24.747Z,3.63
2022-10-11T09:05:57.938Z,2.90
2022-10-11T09:08:45.471Z,3.20
2022-10-11T09:11:12.825Z,3.10
2022-10-11T09:14:00.570Z,2.60
2022-10-11T09:16:32.863Z,3.35
2022-10-11T09:19:23.179Z,2.40
2022-10-11T09:22:01.513Z,2.65
2022-10-11T09:24:47.451Z,2.45
2022-10-11T09:27:57.697Z,2.40
2022-10-11T09:30:22.180Z,3.25
2022-10-11T09:33:00.328Z,3.00
2022-10-11T09:35:29.161Z,4.22
2022-10-11T09:38:06.867Z,3.70
2022-10-11T09:40:44.129Z,3.40
2022-10-11T09:43:11.480Z,4.18
2022-10-11T09:45:48.255Z,3.92
2022-10-11T09:48:36.932Z,4.68
2022-10-11T09:51:06.646Z,5.00
2022-10-11T09:53:50.742Z,5.70
2022-10-11T09:56:18.073Z,4.80
2022-10-11T09:58:45.475Z,5.45
2022-10-11T10:01:14.236Z,5.68
2022-10-11T10:03:43.417Z,5.93
2022-10-11T10:06:24.518Z,5.50
2022-10-11T10:08:51.803Z,6.18
2022-10-11T10:11:19.836Z,5.38
2022-10-11T10:13:51.286Z,4.85
2022-10-11T10:16:21.292Z,5.25
2022-10-11T10:21:16.330Z,5.63
2022-10-11T10:23:44.059Z,6.30
2022-10-11T10:26:19.668Z,4.22
2022-10-11T10:28:59.183Z,5.22
2022-10-11T10:31:30.042Z,4.47
2022-10-11T10:33:58.133Z,3.83
2022-10-11T10:36:30.530Z,4.57
2022-10-11T10:39:11.660Z,4.20
2022-10-11T10:41:38.944Z,4.40
2022-10-11T10:44:06.357Z,4.18
2022-10-11T10:46:39.406Z,4.07
2022-10-11T10:49:41.158Z,4.10
2022-10-11T10:54:44.073Z,3.53
2022-10-11T10:57:20.933Z,3.92
2022-10-11T10:59:51.251Z,3.45
2022-10-11T11:02:39.603Z,3.90
2022-10-11T11:05:18.986Z,4.93
2022-10-11T11:07:46.317Z,4.20
2022-10-11T11:10:19.569Z,4.20
2022-10-11T11:12:46.863Z,3.63
2022-10-11T11:15:19.734Z,3.25
2022-10-11T11:17:56.357Z,4.57
2022-10-11T11:20:42.491Z,4.00
2022-10-11T11:23:23.833Z,4.10
2022-10-11T11:25:58.022Z,4.85
2022-10-11T11:28:25.363Z,4.20
2022-10-11T11:30:52.587Z,4.93
2022-10-11T11:33:19.778Z,4.40
2022-10-11T11:35:49.589Z,4.15
2022-10-11T11:38:19.865Z,4.35
2022-10-11T11:40:53.482Z,5.20
2022-10-11T11:43:25.012Z,4.53
2022-10-11T11:45:55.294Z,4.28
2022-10-11T11:48:27.476Z,4.80
2022-10-11T11:51:02.856Z,4.38
2022-10-11T11:53:33.115Z,4.18
2022-10-11T11:56:07.871Z,4.47
2022-10-11T11:58:45.973Z,4.25
2022-10-11T12:01:26.519Z,4.50
2022-10-11T12:03:57.998Z,4.28
2022-10-11T12:06:36.114Z,4.93
2022-10-11T12:09:20.483Z,5.05
2022-10-11T12:11:56.218Z,4.38
2022-10-11T12:14:24.807Z,3.58
2022-10-11T12:17:07.122Z,4.35
2022-10-11T12:19:34.424Z,5.13
2022-10-11T12:22:36.834Z,4.85
2022-10-11T12:25:12.808Z,5.07
2022-10-11T12:27:46.795Z,5.57
2022-10-11T12:30:32.752Z,5.35
2022-10-11T12:33:16.774Z,5.97
2022-10-11T12:35:56.239Z,5.90
2022-10-11T12:38:25.318Z,6.13
2022-10-11T12:41:02.558Z,6.33
2022-10-11T12:43:37.586Z,5.80
2022-10-11T12:46:23.486Z,5.75
2022-10-11T12:48:58.632Z,5.30
2022-10-11T12:51:34.822Z,6.75
2022-10-11T12:54:25.413Z,6.38
2022-10-11T12:56:55.206Z,5.75
2022-10-11T12:59:23.862Z,6.07
2022-10-11T13:01:58.887Z,5.88
2022-10-11T13:04:30.839Z,5.70
2022-10-11T13:07:02.113Z,5.97
2022-10-11T13:09:35.653Z,5.38
2022-10-11T13:12:21.885Z,6.10
2022-10-11T13:15:04.012Z,6.88
2022-10-11T13:17:38.019Z,6.05
2022-10-11T13:20:18.290Z,6.15
2022-10-11T13:22:47.519Z,7.13
2022-10-11T13:25:37.575Z,6.63
2022-10-11T13:28:09.694Z,6.45
2022-10-11T13:30:38.201Z,6.22
2022-10-11T13:33:08.721Z,6.72
2022-10-11T13:35:37.149Z,7.38
2022-10-11T13:38:05.590Z,7.18
2022-10-11T13:40:33.034Z,8.23
2022-10-11T13:43:00.482Z,7.65
2022-10-11T13:45:30.737Z,7.75
2022-10-11T13:47:58.205Z,8.00
2022-10-11T13:50:32.127Z,8.00
2022-10-11T13:53:01.219Z,7.85
2022-10-11T13:55:35.991Z,6.30
2022-10-11T13:58:11.211Z,7.30
2022-10-11T14:00:40.496Z,7.97
2022-10-11T14:03:16.291Z,8.18
2022-10-11T14:05:44.879Z,8.68
2022-10-11T14:08:30.381Z,8.38
2022-10-11T14:11:01.285Z,8.20
2022-10-11T14:13:35.351Z,8.15
2022-10-11T14:16:02.732Z,9.20
2022-10-11T14:18:47.455Z,8.30
2022-10-11T14:21:18.836Z,8.85
2022-10-11T14:23:46.569Z,8.77
2022-10-11T14:26:18.510Z,8.05
2022-10-11T14:28:46.537Z,10.05
2022-10-11T14:31:13.820Z,10.95
2022-10-11T14:33:41.083Z,10.80
2022-10-11T14:36:08.936Z,10.82
2022-10-11T14:38:36.413Z,11.45
2022-10-11T14:41:03.921Z,10.18
2022-10-11T14:43:31.197Z,10.70
2022-10-11T14:45:58.578Z,10.20
2022-10-11T14:48:50.363Z,10.77
2022-10-11T14:51:13.795Z,10.13
2022-10-11T14:53:46.266Z,10.00
2022-10-11T14:56:17.793Z,9.85
2022-10-11T14:58:48.508Z,9.30
2022-10-11T15:01:16.919Z,10.13
2022-10-11T15:03:44.484Z,9.88
2022-10-11T15:06:32.865Z,8.75
2022-10-11T15:09:00.248Z,10.02
2022-10-11T15:11:27.553Z,11.02
2022-10-11T15:13:54.800Z,10.65
2022-10-11T15:16:22.500Z,10.32
2022-10-11T15:18:52.091Z,11.93
2022-10-11T15:21:22.754Z,10.25
2022-10-11T15:23:50.761Z,11.43
2022-10-11T15:26:21.231Z,12.07
2022-10-11T15:28:49.276Z,13.80
2022-10-11T15:31:18.915Z,12.37
2022-10-11T15:33:46.873Z,13.40
2022-10-11T15:36:18.831Z,14.65
2022-10-11T15:38:48.416Z,14.13
2022-10-11T15:41:19.005Z,14.95
2022-10-11T15:43:47.438Z,14.75
2022-10-11T15:46:19.364Z,14.40
2022-10-11T15:48:47.379Z,13.68
2022-10-11T15:51:14.791Z,14.30
2022-10-11T15:53:42.224Z,12.98
2022-10-11T15:56:12.720Z,13.48
2022-10-11T15:58:41.093Z,12.25
2022-10-11T16:01:09.992Z,11.57
2022-10-11T16:03:37.315Z,12.45
2022-10-11T16:06:05.686Z,11.63
2022-10-11T16:08:33.647Z,13.45
2022-10-11T16:11:00.922Z,18.30
2022-10-11T16:13:28.211Z,13.98
2022-10-11T16:15:55.509Z,13.05
2022-10-11T16:18:22.876Z,12.40
2022-10-11T16:20:52.002Z,11.15
2022-10-11T16:23:20.798Z,13.17
2022-10-11T16:25:56.464Z,12.40
2022-10-11T16:28:23.784Z,11.02
2022-10-11T16:30:51.179Z,12.50
2022-10-11T16:33:18.536Z,11.80
2022-10-11T16:35:45.845Z,12.23
2022-10-11T16:38:13.187Z,12.05
2022-10-11T16:40:41.165Z,12.82
2022-10-11T16:43:08.636Z,12.57
2022-10-11T16:45:36.456Z,13.52
2022-10-11T16:48:04.223Z,13.48
2022-10-11T16:50:34.442Z,13.50
2022-10-11T16:53:05.678Z,12.80
2022-10-11T16:55:32.924Z,13.65
2022-10-11T16:58:00.156Z,13.60
2022-10-11T17:00:27.570Z,14.30
2022-10-11T17:02:54.946Z,15.02
2022-10-11T17:05:22.228Z,17.27
2022-10-11T17:07:49.465Z,16.23
2022-10-11T17:10:16.737Z,19.98
2022-10-11T17:12:49.170Z,20.15
2022-10-11T17:15:17.561Z,18.48
2022-10-11T17:17:44.882Z,21.55
2022-10-11T17:20:12.208Z,21.23
2022-10-11T17:22:39.480Z,21.65
2022-10-11T17:25:07.230Z,23.38
2022-10-11T17:27:34.602Z,20.88
2022-10-11T17:30:01.872Z,20.90
2022-10-11T17:32:29.139Z,20.40
2022-10-11T17:34:57.403Z,20.40
2022-10-11T17:37:24.797Z,19.58
2022-10-11T17:39:53.773Z,22.38
2022-10-11T17:42:21.078Z,20.98
2022-10-11T17:44:48.424Z,20.33
2022-10-11T17:47:15.945Z,23.63
2022-10-11T17:49:43.293Z,19.58
2022-10-11T17:52:10.535Z,21.88
2022-10-11T17:54:40.167Z,23.02
2022-10-11T17:57:09.855Z,22.40
2022-10-11T17:59:37.371Z,25.00
2022-10-11T18:02:04.620Z,22.10
2022-10-11T18:04:31.883Z,23.98
2022-10-11T18:06:59.160Z,22.17
2022-10-11T18:09:27.275Z,26.52
2022-10-11T18:11:55.806Z,27.15
2022-10-11T18:14:23.063Z,24.52
2022-10-11T18:16:50.654Z,22.33
2022-10-11T18:19:18.676Z,21.58
2022-10-11T18:21:46.058Z,24.90
2022-10-11T18:24:17.838Z,20.58
2022-10-11T18:26:46.284Z,21.67
2022-10-11T18:29:13.894Z,22.77
2022-10-11T18:31:42.758Z,23.17
2022-10-11T18:34:13.087Z,24.35
2022-10-11T18:36:40.480Z,24.05
2022-10-11T18:39:09.037Z,21.67
2022-10-11T18:41:36.714Z,24.90
2022-10-11T18:44:06.776Z,26.40
2022-10-11T18:46:34.358Z,24.48
2022-10-11T18:49:02.123Z,25.85
2022-10-11T18:51:31.818Z,23.80
2022-10-11T18:54:00.782Z,29.17
2022-10-11T18:56:29.947Z,29.52
2022-10-11T18:58:59.891Z,26.95
2022-10-11T19:01:32.733Z,27.48
2022-10-11T19:04:04.835Z,25.65
2022-10-11T19:06:33.705Z,23.60
2022-10-11T19:09:11.923Z,26.88
2022-10-11T19:11:39.654Z,25.73
2022-10-11T19:14:11.587Z,23.45
2022-10-11T19:16:41.920Z,23.15
2022-10-11T19:19:11.935Z,19.88
2022-10-11T19:24:07.498Z,18.20
2022-10-11T19:26:37.147Z,20.70
2022-10-11T19:29:06.462Z,19.38
2022-10-11T19:31:34.833Z,18.48
2022-10-11T19:34:02.487Z,17.65
2022-10-11T19:36:36.256Z,17.08
2022-10-11T19:39:04.940Z,15.27
2022-10-11T19:41:33.856Z,15.02
2022-10-11T19:44:01.203Z,12.60
2022-10-11T19:49:17.846Z,16.55
2022-10-11T19:51:45.610Z,18.00
2022-10-11T19:54:14.262Z,16.40
2022-10-11T19:56:42.483Z,16.05
2022-10-11T19:59:10.760Z,15.85
2022-10-11T20:01:38.603Z,16.25
2022-10-11T20:04:07.457Z,16.55
2022-10-11T20:06:38.642Z,15.57
2022-10-11T20:11:54.733Z,15.38
2022-10-11T20:14:22.142Z,18.98
2022-10-11T20:16:52.179Z,15.20
2022-10-11T20:19:19.538Z,15.88
2022-10-11T20:21:46.885Z,17.25
2022-10-11T20:24:14.194Z,18.58
2022-10-11T20:26:41.482Z,15.77
2022-10-11T20:29:08.814Z,17.10
2022-10-11T20:31:41.832Z,16.25
2022-10-11T20:34:10.086Z,17.70
2022-10-11T20:36:37.421Z,19.48
2022-10-11T20:39:06.001Z,20.30
2022-10-11T20:41:37.019Z,19.27
2022-10-11T20:44:04.897Z,16.63
2022-10-11T20:46:36.095Z,14.32
2022-10-11T20:49:04.635Z,12.27
2022-10-11T20:51:32.910Z,13.98
2022-10-11T20:54:01.024Z,11.43
2022-10-11T20:56:28.470Z,12.45
2022-10-11T20:58:56.656Z,9.77
2022-10-11T21:01:26.363Z,9.00
2022-10-11T21:03:53.857Z,8.90
2022-10-11T21:06:21.120Z,8.68
2022-10-11T21:08:48.538Z,7.70
2022-10-11T21:11:16.437Z,10.70
2022-10-11T21:13:44.082Z,10.98
2022-10-11T21:16:15.358Z,8.65
2022-10-11T21:18:42.886Z,9.43
2022-10-11T21:21:13.498Z,8.88
2022-10-11T21:23:41.466Z,9.35
2022-10-11T21:26:13.432Z,11.23
2022-10-11T21:28:41.213Z,12.38
2022-10-11T21:31:13.054Z,11.75
2022-10-11T21:33:41.097Z,10.95
2022-10-11T21:36:09.384Z,10.95
2022-10-11T21:38:36.988Z,11.57
2022-10-11T21:41:08.593Z,10.07
2022-10-11T21:43:38.217Z,10.75
2022-10-11T21:46:12.649Z,9.82
2022-10-11T21:48:40.090Z,10.02
2022-10-11T21:51:07.771Z,9.55
2022-10-11T21:53:35.270Z,10.02
2022-10-11T21:56:02.566Z,8.20
2022-10-11T21:58:29.917Z,10.90
2022-10-11T22:00:57.311Z,10.18
2022-10-11T22:03:24.725Z,7.88
2022-10-11T22:05:52.152Z,8.75
2022-10-11T22:08:19.626Z,7.70
2022-10-11T22:10:53.361Z,6.53
2022-10-11T22:13:20.990Z,6.32
2022-10-11T22:15:48.317Z,6.47
2022-10-11T22:18:15.856Z,5.13
2022-10-11T22:20:43.268Z,6.28
2022-10-11T22:23:11.606Z,6.15
2022-10-11T22:25:39.709Z,5.75
2022-10-11T22:28:07.237Z,4.75
2022-10-11T22:30:35.058Z,4.53
2022-10-11T22:33:02.406Z,4.65
2022-10-11T22:35:31.440Z,4.20
2022-10-11T22:38:00.983Z,4.38
2022-10-11T22:40:28.300Z,3.78
2022-10-11T22:42:55.580Z,4.18
2022-10-11T22:45:22.879Z,4.00
2022-10-11T22:47:50.211Z,4.15
2022-10-11T22:50:17.579Z,4.32
2022-10-11T22:52:44.904Z,3.67
2022-10-11T22:55:16.239Z,3.80
2022-10-11T22:57:46.969Z,4.30
2022-10-11T23:00:14.425Z,3.55
2022-10-11T23:02:41.823Z,3.13
2022-10-11T23:05:09.205Z,3.55
2022-10-11T23:07:36.997Z,2.92
2022-10-11T23:10:04.994Z,3.40
2022-10-11T23:12:32.447Z,3.47
2022-10-11T23:15:01.335Z,3.03
2022-10-11T23:17:31.689Z,2.88
2022-10-11T23:19:59.056Z,2.97
2022-10-11T23:22:26.420Z,2.65
2022-10-11T23:24:53.731Z,2.92
2022-10-11T23:27:21.127Z,2.83
2022-10-11T23:29:48.425Z,3.47
2022-10-11T23:32:15.760Z,3.17
2022-10-11T23:34:43.143Z,3.00
2022-10-11T23:37:12.751Z,2.70
2022-10-11T23:39:40.116Z,2.30
2022-10-11T23:42:07.565Z,2.70
2022-10-11T23:44:34.871Z,2.28
2022-10-11T23:47:02.470Z,2.00
2022-10-11T23:49:29.769Z,2.90
2022-10-11T23:51:57.412Z,2.40
2022-10-11T23:54:24.780Z,2.30
2022-10-11T23:56:52.091Z,2.13
2022-10-11T23:59:19.515Z,2.45
